sensor_id;sensor_type;location;lat;lon;timestamp;temperature;humidity
19930;DHT22;10127;47.780;9.606;2023-05-29T00:00:44;14.70;92.10
19930;DHT22;10127;47.780;9.606;2023-05-29T00:03:10;14.70;92.00
19930;DHT22;10127;47.780;9.606;2023-05-29T00:05:35;14.50;92.00
19930;DHT22;10127;47.780;9.606;2023-05-29T00:08:01;14.40;92.10
19930;DHT22;10127;47.780;9.606;2023-05-29T00:10:27;14.40;92.50
19930;DHT22;10127;47.780;9.606;2023-05-29T00:12:52;14.40;92.20
19930;DHT22;10127;47.780;9.606;2023-05-29T00:15:18;14.40;92.40
19930;DHT22;10127;47.780;9.606;2023-05-29T00:17:44;14.30;92.70
19930;DHT22;10127;47.780;9.606;2023-05-29T00:20:10;14.30;92.80
19930;DHT22;10127;47.780;9.606;2023-05-29T00:22:37;14.20;92.90
19930;DHT22;10127;47.780;9.606;2023-05-29T00:25:07;14.20;93.10
19930;DHT22;10127;47.780;9.606;2023-05-29T00:27:34;14.20;93.20
19930;DHT22;10127;47.780;9.606;2023-05-29T00:30:00;14.20;93.30
19930;DHT22;10127;47.780;9.606;2023-05-29T00:32:27;14.20;93.30
19930;DHT22;10127;47.780;9.606;2023-05-29T00:34:56;14.10;93.30
19930;DHT22;10127;47.780;9.606;2023-05-29T00:37:22;14.10;93.60
19930;DHT22;10127;47.780;9.606;2023-05-29T00:39:48;14.10;93.50
19930;DHT22;10127;47.780;9.606;2023-05-29T00:42:14;14.10;93.50
19930;DHT22;10127;47.780;9.606;2023-05-29T00:44:39;14.00;93.70
19930;DHT22;10127;47.780;9.606;2023-05-29T00:47:05;14.00;93.70
19930;DHT22;10127;47.780;9.606;2023-05-29T00:49:32;14.00;93.90
19930;DHT22;10127;47.780;9.606;2023-05-29T00:51:59;13.90;93.80
19930;DHT22;10127;47.780;9.606;2023-05-29T00:54:29;13.80;94.00
19930;DHT22;10127;47.780;9.606;2023-05-29T00:56:58;13.90;93.90
19930;DHT22;10127;47.780;9.606;2023-05-29T00:59:27;13.80;93.90
19930;DHT22;10127;47.780;9.606;2023-05-29T01:01:55;13.80;93.90
19930;DHT22;10127;47.780;9.606;2023-05-29T01:04:22;13.80;94.00
19930;DHT22;10127;47.780;9.606;2023-05-29T01:06:49;13.70;94.20
19930;DHT22;10127;47.780;9.606;2023-05-29T01:09:15;13.70;94.20
19930;DHT22;10127;47.780;9.606;2023-05-29T01:12:06;13.60;94.30
19930;DHT22;10127;47.780;9.606;2023-05-29T01:18:06;13.60;94.30
19930;DHT22;10127;47.780;9.606;2023-05-29T01:20:46;13.60;94.30
19930;DHT22;10127;47.780;9.606;2023-05-29T01:28:37;13.60;94.00
19930;DHT22;10127;47.780;9.606;2023-05-29T01:31:07;13.50;94.00
19930;DHT22;10127;47.780;9.606;2023-05-29T01:33:33;13.40;94.10
19930;DHT22;10127;47.780;9.606;2023-05-29T01:35:58;13.40;94.20
19930;DHT22;10127;47.780;9.606;2023-05-29T01:38:24;13.40;94.30
19930;DHT22;10127;47.780;9.606;2023-05-29T01:40:50;13.30;94.30
19930;DHT22;10127;47.780;9.606;2023-05-29T01:43:16;13.30;94.30
19930;DHT22;10127;47.780;9.606;2023-05-29T01:45:42;13.30;94.30
19930;DHT22;10127;47.780;9.606;2023-05-29T01:48:08;13.20;94.30
19930;DHT22;10127;47.780;9.606;2023-05-29T01:50:34;13.20;94.40
19930;DHT22;10127;47.780;9.606;2023-05-29T01:53:00;13.20;94.40
19930;DHT22;10127;47.780;9.606;2023-05-29T01:55:26;13.20;94.50
19930;DHT22;10127;47.780;9.606;2023-05-29T01:57:51;13.10;94.50
19930;DHT22;10127;47.780;9.606;2023-05-29T02:00:17;13.10;94.70
19930;DHT22;10127;47.780;9.606;2023-05-29T02:02:44;13.10;94.70
19930;DHT22;10127;47.780;9.606;2023-05-29T02:05:10;13.10;94.90
19930;DHT22;10127;47.780;9.606;2023-05-29T02:07:36;13.00;95.10
19930;DHT22;10127;47.780;9.606;2023-05-29T02:10:05;13.00;95.20
19930;DHT22;10127;47.780;9.606;2023-05-29T02:12:30;13.00;95.30
19930;DHT22;10127;47.780;9.606;2023-05-29T02:14:56;13.00;95.30
19930;DHT22;10127;47.780;9.606;2023-05-29T02:17:22;13.00;95.40
19930;DHT22;10127;47.780;9.606;2023-05-29T02:19:48;13.00;95.50
19930;DHT22;10127;47.780;9.606;2023-05-29T02:22:13;12.90;95.60
19930;DHT22;10127;47.780;9.606;2023-05-29T02:24:39;12.90;95.60
19930;DHT22;10127;47.780;9.606;2023-05-29T02:27:05;12.80;95.70
19930;DHT22;10127;47.780;9.606;2023-05-29T02:29:30;12.80;95.70
19930;DHT22;10127;47.780;9.606;2023-05-29T02:31:56;12.80;95.80
19930;DHT22;10127;47.780;9.606;2023-05-29T02:34:21;12.80;95.90
19930;DHT22;10127;47.780;9.606;2023-05-29T02:36:51;12.70;96.00
19930;DHT22;10127;47.780;9.606;2023-05-29T02:39:20;12.70;96.10
19930;DHT22;10127;47.780;9.606;2023-05-29T02:41:46;12.70;96.30
19930;DHT22;10127;47.780;9.606;2023-05-29T02:44:12;12.70;96.40
19930;DHT22;10127;47.780;9.606;2023-05-29T02:46:37;12.70;96.50
19930;DHT22;10127;47.780;9.606;2023-05-29T02:49:03;12.70;96.60
19930;DHT22;10127;47.780;9.606;2023-05-29T03:12:06;12.60;97.20
19930;DHT22;10127;47.780;9.606;2023-05-29T03:14:32;12.50;97.20
19930;DHT22;10127;47.780;9.606;2023-05-29T03:17:06;12.50;97.30
19930;DHT22;10127;47.780;9.606;2023-05-29T03:19:34;12.60;97.40
19930;DHT22;10127;47.780;9.606;2023-05-29T03:22:00;12.60;97.30
19930;DHT22;10127;47.780;9.606;2023-05-29T03:24:26;12.60;97.30
19930;DHT22;10127;47.780;9.606;2023-05-29T03:26:53;12.60;97.40
19930;DHT22;10127;47.780;9.606;2023-05-29T03:29:18;12.60;97.50
19930;DHT22;10127;47.780;9.606;2023-05-29T03:31:44;12.50;97.60
19930;DHT22;10127;47.780;9.606;2023-05-29T03:34:09;12.50;97.70
19930;DHT22;10127;47.780;9.606;2023-05-29T03:36:35;12.50;98.00
19930;DHT22;10127;47.780;9.606;2023-05-29T03:39:03;12.50;98.00
19930;DHT22;10127;47.780;9.606;2023-05-29T03:41:29;12.40;98.00
19930;DHT22;10127;47.780;9.606;2023-05-29T03:43:55;12.40;98.30
19930;DHT22;10127;47.780;9.606;2023-05-29T03:46:20;12.40;98.40
19930;DHT22;10127;47.780;9.606;2023-05-29T03:48:46;12.40;98.40
19930;DHT22;10127;47.780;9.606;2023-05-29T03:51:12;12.40;98.60
19930;DHT22;10127;47.780;9.606;2023-05-29T03:53:37;12.40;98.50
19930;DHT22;10127;47.780;9.606;2023-05-29T03:56:03;12.30;98.60
19930;DHT22;10127;47.780;9.606;2023-05-29T03:58:28;12.40;98.60
19930;DHT22;10127;47.780;9.606;2023-05-29T04:00:54;12.40;98.60
19930;DHT22;10127;47.780;9.606;2023-05-29T04:03:20;12.40;98.70
19930;DHT22;10127;47.780;9.606;2023-05-29T04:05:46;12.40;98.60
19930;DHT22;10127;47.780;9.606;2023-05-29T04:08:11;12.50;98.50
19930;DHT22;10127;47.780;9.606;2023-05-29T04:10:38;12.40;98.70
19930;DHT22;10127;47.780;9.606;2023-05-29T04:13:04;12.40;98.70
19930;DHT22;10127;47.780;9.606;2023-05-29T04:15:31;12.50;98.70
19930;DHT22;10127;47.780;9.606;2023-05-29T04:17:59;12.50;98.60
19930;DHT22;10127;47.780;9.606;2023-05-29T04:20:24;12.60;98.60
19930;DHT22;10127;47.780;9.606;2023-05-29T04:22:51;12.60;98.60
19930;DHT22;10127;47.780;9.606;2023-05-29T04:25:16;12.70;98.60
19930;DHT22;10127;47.780;9.606;2023-05-29T04:27:43;12.80;98.40
19930;DHT22;10127;47.780;9.606;2023-05-29T04:30:14;12.80;98.40
19930;DHT22;10127;47.780;9.606;2023-05-29T04:32:40;12.90;98.30
19930;DHT22;10127;47.780;9.606;2023-05-29T04:35:06;13.10;98.10
19930;DHT22;10127;47.780;9.606;2023-05-29T04:37:32;14.90;96.80
19930;DHT22;10127;47.780;9.606;2023-05-29T04:40:06;16.80;92.90
19930;DHT22;10127;47.780;9.606;2023-05-29T04:42:35;16.20;92.70
19930;DHT22;10127;47.780;9.606;2023-05-29T04:45:01;15.10;93.90
19930;DHT22;10127;47.780;9.606;2023-05-29T04:47:27;14.60;95.00
19930;DHT22;10127;47.780;9.606;2023-05-29T04:49:54;14.20;95.60
19930;DHT22;10127;47.780;9.606;2023-05-29T04:52:19;14.10;96.00
19930;DHT22;10127;47.780;9.606;2023-05-29T04:54:46;13.90;96.40
19930;DHT22;10127;47.780;9.606;2023-05-29T04:57:12;13.80;96.80
19930;DHT22;10127;47.780;9.606;2023-05-29T04:59:37;14.50;96.00
19930;DHT22;10127;47.780;9.606;2023-05-29T05:02:04;14.60;95.60
19930;DHT22;10127;47.780;9.606;2023-05-29T05:04:29;14.40;95.90
19930;DHT22;10127;47.780;9.606;2023-05-29T05:06:55;14.90;95.30
19930;DHT22;10127;47.780;9.606;2023-05-29T05:09:21;14.40;95.90
19930;DHT22;10127;47.780;9.606;2023-05-29T05:11:46;14.20;96.30
19930;DHT22;10127;47.780;9.606;2023-05-29T05:14:12;14.10;96.50
19930;DHT22;10127;47.780;9.606;2023-05-29T05:16:37;14.00;96.70
19930;DHT22;10127;47.780;9.606;2023-05-29T05:19:03;14.00;96.90
19930;DHT22;10127;47.780;9.606;2023-05-29T05:21:28;13.90;96.80
19930;DHT22;10127;47.780;9.606;2023-05-29T05:23:57;13.90;97.00
19930;DHT22;10127;47.780;9.606;2023-05-29T05:26:22;13.90;97.20
19930;DHT22;10127;47.780;9.606;2023-05-29T05:28:48;13.90;97.30
19930;DHT22;10127;47.780;9.606;2023-05-29T05:31:13;13.90;97.20
19930;DHT22;10127;47.780;9.606;2023-05-29T05:33:39;14.00;97.30
19930;DHT22;10127;47.780;9.606;2023-05-29T05:36:05;14.10;97.20
19930;DHT22;10127;47.780;9.606;2023-05-29T05:38:32;14.10;97.20
19930;DHT22;10127;47.780;9.606;2023-05-29T05:40:57;14.10;97.30
19930;DHT22;10127;47.780;9.606;2023-05-29T05:43:23;14.10;97.40
19930;DHT22;10127;47.780;9.606;2023-05-29T05:45:48;14.10;97.40
19930;DHT22;10127;47.780;9.606;2023-05-29T05:48:14;14.20;97.40
19930;DHT22;10127;47.780;9.606;2023-05-29T05:50:39;14.30;97.20
19930;DHT22;10127;47.780;9.606;2023-05-29T05:53:06;14.30;97.30
19930;DHT22;10127;47.780;9.606;2023-05-29T05:55:31;14.40;97.10
19930;DHT22;10127;47.780;9.606;2023-05-29T05:57:57;14.40;97.30
19930;DHT22;10127;47.780;9.606;2023-05-29T06:00:23;14.40;97.40
19930;DHT22;10127;47.780;9.606;2023-05-29T06:02:49;14.40;97.50
19930;DHT22;10127;47.780;9.606;2023-05-29T06:05:15;14.50;97.40
19930;DHT22;10127;47.780;9.606;2023-05-29T06:07:41;14.70;97.20
19930;DHT22;10127;47.780;9.606;2023-05-29T06:10:07;14.70;97.10
19930;DHT22;10127;47.780;9.606;2023-05-29T06:12:33;14.70;97.20
19930;DHT22;10127;47.780;9.606;2023-05-29T06:14:59;14.80;97.10
19930;DHT22;10127;47.780;9.606;2023-05-29T06:17:25;14.90;96.90
19930;DHT22;10127;47.780;9.606;2023-05-29T06:19:50;15.10;96.70
19930;DHT22;10127;47.780;9.606;2023-05-29T06:22:17;15.00;96.60
19930;DHT22;10127;47.780;9.606;2023-05-29T06:24:42;15.00;96.60
19930;DHT22;10127;47.780;9.606;2023-05-29T06:27:08;15.20;96.70
19930;DHT22;10127;47.780;9.606;2023-05-29T06:29:34;15.20;96.20
19930;DHT22;10127;47.780;9.606;2023-05-29T06:31:59;15.20;96.80
19930;DHT22;10127;47.780;9.606;2023-05-29T06:34:26;15.40;96.30
19930;DHT22;10127;47.780;9.606;2023-05-29T06:36:52;15.40;96.10
19930;DHT22;10127;47.780;9.606;2023-05-29T06:39:18;15.60;96.20
19930;DHT22;10127;47.780;9.606;2023-05-29T06:41:45;15.70;95.90
19930;DHT22;10127;47.780;9.606;2023-05-29T06:44:11;15.70;95.90
19930;DHT22;10127;47.780;9.606;2023-05-29T06:46:36;15.80;95.70
19930;DHT22;10127;47.780;9.606;2023-05-29T06:49:02;15.90;95.60
19930;DHT22;10127;47.780;9.606;2023-05-29T06:51:27;15.90;95.70
19930;DHT22;10127;47.780;9.606;2023-05-29T06:53:53;15.90;95.90
19930;DHT22;10127;47.780;9.606;2023-05-29T06:56:19;16.10;95.50
19930;DHT22;10127;47.780;9.606;2023-05-29T06:58:44;16.10;95.40
19930;DHT22;10127;47.780;9.606;2023-05-29T07:01:11;16.10;95.30
19930;DHT22;10127;47.780;9.606;2023-05-29T07:03:43;16.20;95.30
19930;DHT22;10127;47.780;9.606;2023-05-29T07:06:08;16.30;95.20
19930;DHT22;10127;47.780;9.606;2023-05-29T07:08:35;16.40;95.30
19930;DHT22;10127;47.780;9.606;2023-05-29T07:11:01;16.40;95.20
19930;DHT22;10127;47.780;9.606;2023-05-29T07:13:27;16.50;95.30
19930;DHT22;10127;47.780;9.606;2023-05-29T07:15:53;16.50;95.30
19930;DHT22;10127;47.780;9.606;2023-05-29T07:18:18;16.70;95.30
19930;DHT22;10127;47.780;9.606;2023-05-29T07:20:44;16.80;94.80
19930;DHT22;10127;47.780;9.606;2023-05-29T07:23:10;17.00;94.80
19930;DHT22;10127;47.780;9.606;2023-05-29T07:25:35;17.00;94.40
19930;DHT22;10127;47.780;9.606;2023-05-29T07:28:01;17.10;94.40
19930;DHT22;10127;47.780;9.606;2023-05-29T07:30:26;17.20;94.40
19930;DHT22;10127;47.780;9.606;2023-05-29T07:32:52;17.30;94.40
19930;DHT22;10127;47.780;9.606;2023-05-29T07:35:17;17.40;94.30
19930;DHT22;10127;47.780;9.606;2023-05-29T07:37:43;17.50;94.30
19930;DHT22;10127;47.780;9.606;2023-05-29T07:40:09;17.50;94.20
19930;DHT22;10127;47.780;9.606;2023-05-29T07:42:35;17.60;93.90
19930;DHT22;10127;47.780;9.606;2023-05-29T07:45:01;17.70;93.90
19930;DHT22;10127;47.780;9.606;2023-05-29T07:47:27;17.80;93.80
19930;DHT22;10127;47.780;9.606;2023-05-29T07:49:52;17.80;93.80
19930;DHT22;10127;47.780;9.606;2023-05-29T07:52:24;17.90;94.00
19930;DHT22;10127;47.780;9.606;2023-05-29T07:54:50;18.00;93.90
19930;DHT22;10127;47.780;9.606;2023-05-29T07:57:16;18.10;93.80
19930;DHT22;10127;47.780;9.606;2023-05-29T07:59:48;18.20;93.90
19930;DHT22;10127;47.780;9.606;2023-05-29T08:02:15;18.30;93.70
19930;DHT22;10127;47.780;9.606;2023-05-29T08:04:41;18.30;93.80
19930;DHT22;10127;47.780;9.606;2023-05-29T08:07:07;18.50;93.90
19930;DHT22;10127;47.780;9.606;2023-05-29T08:09:33;18.60;94.00
19930;DHT22;10127;47.780;9.606;2023-05-29T08:11:58;18.70;93.40
19930;DHT22;10127;47.780;9.606;2023-05-29T08:14:26;18.90;92.80
19930;DHT22;10127;47.780;9.606;2023-05-29T08:16:52;19.00;93.00
19930;DHT22;10127;47.780;9.606;2023-05-29T08:19:17;19.00;92.80
19930;DHT22;10127;47.780;9.606;2023-05-29T08:21:43;19.10;92.90
19930;DHT22;10127;47.780;9.606;2023-05-29T08:24:16;19.10;92.60
19930;DHT22;10127;47.780;9.606;2023-05-29T08:26:48;19.30;92.70
19930;DHT22;10127;47.780;9.606;2023-05-29T08:29:20;19.40;92.60
19930;DHT22;10127;47.780;9.606;2023-05-29T08:31:45;19.40;92.40
19930;DHT22;10127;47.780;9.606;2023-05-29T08:34:11;19.50;92.30
19930;DHT22;10127;47.780;9.606;2023-05-29T08:36:37;19.60;92.00
19930;DHT22;10127;47.780;9.606;2023-05-29T08:39:03;19.70;92.10
19930;DHT22;10127;47.780;9.606;2023-05-29T08:41:51;19.70;92.20
19930;DHT22;10127;47.780;9.606;2023-05-29T08:44:22;19.80;92.00
19930;DHT22;10127;47.780;9.606;2023-05-29T08:46:54;20.00;92.00
19930;DHT22;10127;47.780;9.606;2023-05-29T08:49:29;20.00;91.80
19930;DHT22;10127;47.780;9.606;2023-05-29T08:52:23;20.20;91.60
19930;DHT22;10127;47.780;9.606;2023-05-29T08:54:53;20.30;91.40
19930;DHT22;10127;47.780;9.606;2023-05-29T08:57:19;20.40;91.20
19930;DHT22;10127;47.780;9.606;2023-05-29T08:59:47;20.50;90.60
19930;DHT22;10127;47.780;9.606;2023-05-29T09:02:16;20.60;91.10
19930;DHT22;10127;47.780;9.606;2023-05-29T09:04:42;20.80;86.30
19930;DHT22;10127;47.780;9.606;2023-05-29T09:07:13;20.90;82.10
19930;DHT22;10127;47.780;9.606;2023-05-29T09:09:39;20.90;82.60
19930;DHT22;10127;47.780;9.606;2023-05-29T09:12:05;21.00;80.70
19930;DHT22;10127;47.780;9.606;2023-05-29T09:14:35;21.10;81.40
19930;DHT22;10127;47.780;9.606;2023-05-29T09:17:02;21.20;80.10
19930;DHT22;10127;47.780;9.606;2023-05-29T09:19:28;21.30;80.80
19930;DHT22;10127;47.780;9.606;2023-05-29T09:22:07;21.40;79.70
19930;DHT22;10127;47.780;9.606;2023-05-29T09:24:34;21.40;78.70
19930;DHT22;10127;47.780;9.606;2023-05-29T09:27:00;21.20;77.90
19930;DHT22;10127;47.780;9.606;2023-05-29T09:29:46;21.30;78.30
19930;DHT22;10127;47.780;9.606;2023-05-29T09:32:15;21.50;78.40
19930;DHT22;10127;47.780;9.606;2023-05-29T09:34:42;21.50;78.00
19930;DHT22;10127;47.780;9.606;2023-05-29T09:37:10;21.40;77.90
19930;DHT22;10127;47.780;9.606;2023-05-29T09:42:10;21.50;78.10
19930;DHT22;10127;47.780;9.606;2023-05-29T09:44:36;21.60;78.20
19930;DHT22;10127;47.780;9.606;2023-05-29T09:47:02;21.60;77.70
19930;DHT22;10127;47.780;9.606;2023-05-29T09:49:31;21.60;78.00
19930;DHT22;10127;47.780;9.606;2023-05-29T09:51:58;21.70;78.90
19930;DHT22;10127;47.780;9.606;2023-05-29T09:54:27;21.80;78.70
19930;DHT22;10127;47.780;9.606;2023-05-29T09:56:54;21.80;77.90
19930;DHT22;10127;47.780;9.606;2023-05-29T09:59:23;21.90;77.50
19930;DHT22;10127;47.780;9.606;2023-05-29T10:02:03;21.90;77.70
19930;DHT22;10127;47.780;9.606;2023-05-29T10:04:33;21.90;78.00
19930;DHT22;10127;47.780;9.606;2023-05-29T10:07:05;21.90;77.40
19930;DHT22;10127;47.780;9.606;2023-05-29T10:09:33;21.90;76.80
19930;DHT22;10127;47.780;9.606;2023-05-29T10:12:01;22.00;76.70
19930;DHT22;10127;47.780;9.606;2023-05-29T10:14:31;22.00;75.30
19930;DHT22;10127;47.780;9.606;2023-05-29T10:17:02;22.00;74.60
19930;DHT22;10127;47.780;9.606;2023-05-29T10:19:32;22.10;75.90
19930;DHT22;10127;47.780;9.606;2023-05-29T10:22:01;22.30;74.90
19930;DHT22;10127;47.780;9.606;2023-05-29T10:24:27;22.20;75.90
19930;DHT22;10127;47.780;9.606;2023-05-29T10:26:55;22.20;75.70
19930;DHT22;10127;47.780;9.606;2023-05-29T10:29:46;22.30;75.90
19930;DHT22;10127;47.780;9.606;2023-05-29T10:35:09;22.50;70.50
19930;DHT22;10127;47.780;9.606;2023-05-29T10:37:40;22.60;73.00
19930;DHT22;10127;47.780;9.606;2023-05-29T10:40:09;22.50;72.50
19930;DHT22;10127;47.780;9.606;2023-05-29T10:42:48;22.60;72.30
19930;DHT22;10127;47.780;9.606;2023-05-29T10:50:55;22.90;69.80
19930;DHT22;10127;47.780;9.606;2023-05-29T10:53:25;22.90;69.30
19930;DHT22;10127;47.780;9.606;2023-05-29T10:55:53;23.00;70.80
19930;DHT22;10127;47.780;9.606;2023-05-29T10:58:20;22.90;71.50
19930;DHT22;10127;47.780;9.606;2023-05-29T11:00:47;23.00;71.10
19930;DHT22;10127;47.780;9.606;2023-05-29T11:03:19;23.00;70.50
19930;DHT22;10127;47.780;9.606;2023-05-29T11:06:02;23.00;70.40
19930;DHT22;10127;47.780;9.606;2023-05-29T11:08:46;23.10;70.20
19930;DHT22;10127;47.780;9.606;2023-05-29T11:11:13;23.20;70.70
19930;DHT22;10127;47.780;9.606;2023-05-29T11:13:40;23.30;69.00
19930;DHT22;10127;47.780;9.606;2023-05-29T11:18:53;23.30;69.60
19930;DHT22;10127;47.780;9.606;2023-05-29T11:21:46;23.20;70.00
19930;DHT22;10127;47.780;9.606;2023-05-29T11:24:25;23.30;68.70
19930;DHT22;10127;47.780;9.606;2023-05-29T11:26:52;23.50;68.80
19930;DHT22;10127;47.780;9.606;2023-05-29T11:29:22;23.60;68.10
19930;DHT22;10127;47.780;9.606;2023-05-29T11:31:53;23.50;67.40
19930;DHT22;10127;47.780;9.606;2023-05-29T11:34:21;23.50;68.00
19930;DHT22;10127;47.780;9.606;2023-05-29T11:36:48;23.70;66.70
19930;DHT22;10127;47.780;9.606;2023-05-29T11:39:14;23.80;65.90
19930;DHT22;10127;47.780;9.606;2023-05-29T11:41:40;23.80;66.90
19930;DHT22;10127;47.780;9.606;2023-05-29T11:44:06;23.80;67.40
19930;DHT22;10127;47.780;9.606;2023-05-29T11:46:32;23.80;66.80
19930;DHT22;10127;47.780;9.606;2023-05-29T11:49:01;24.00;60.80
19930;DHT22;10127;47.780;9.606;2023-05-29T11:51:27;24.10;62.50
19930;DHT22;10127;47.780;9.606;2023-05-29T11:53:53;24.10;63.50
19930;DHT22;10127;47.780;9.606;2023-05-29T11:56:24;24.20;65.30
19930;DHT22;10127;47.780;9.606;2023-05-29T11:58:51;24.20;65.90
19930;DHT22;10127;47.780;9.606;2023-05-29T12:01:17;24.10;64.60
19930;DHT22;10127;47.780;9.606;2023-05-29T12:03:44;24.20;65.10
19930;DHT22;10127;47.780;9.606;2023-05-29T12:06:10;24.20;65.10
19930;DHT22;10127;47.780;9.606;2023-05-29T12:08:39;24.30;65.20
19930;DHT22;10127;47.780;9.606;2023-05-29T12:11:05;24.30;64.60
19930;DHT22;10127;47.780;9.606;2023-05-29T12:13:31;24.40;63.50
19930;DHT22;10127;47.780;9.606;2023-05-29T12:15:58;24.40;63.40
19930;DHT22;10127;47.780;9.606;2023-05-29T12:18:25;24.40;63.40
19930;DHT22;10127;47.780;9.606;2023-05-29T12:21:00;24.40;63.50
19930;DHT22;10127;47.780;9.606;2023-05-29T12:23:27;24.50;63.40
19930;DHT22;10127;47.780;9.606;2023-05-29T12:25:53;24.40;61.80
19930;DHT22;10127;47.780;9.606;2023-05-29T12:28:20;24.40;62.50
19930;DHT22;10127;47.780;9.606;2023-05-29T12:30:46;24.50;61.50
19930;DHT22;10127;47.780;9.606;2023-05-29T12:33:27;24.50;61.70
19930;DHT22;10127;47.780;9.606;2023-05-29T12:35:53;24.60;62.10
19930;DHT22;10127;47.780;9.606;2023-05-29T12:38:19;24.60;61.00
19930;DHT22;10127;47.780;9.606;2023-05-29T12:40:48;24.60;61.10
19930;DHT22;10127;47.780;9.606;2023-05-29T12:43:14;24.60;60.50
19930;DHT22;10127;47.780;9.606;2023-05-29T12:45:39;24.60;61.80
19930;DHT22;10127;47.780;9.606;2023-05-29T12:48:06;24.70;63.60
19930;DHT22;10127;47.780;9.606;2023-05-29T12:50:38;24.80;64.00
19930;DHT22;10127;47.780;9.606;2023-05-29T12:53:08;24.90;62.00
19930;DHT22;10127;47.780;9.606;2023-05-29T12:55:36;25.00;62.10
19930;DHT22;10127;47.780;9.606;2023-05-29T12:58:03;25.00;59.90
19930;DHT22;10127;47.780;9.606;2023-05-29T13:00:28;24.90;60.70
19930;DHT22;10127;47.780;9.606;2023-05-29T13:02:56;25.00;61.30
19930;DHT22;10127;47.780;9.606;2023-05-29T13:05:22;25.00;61.40
19930;DHT22;10127;47.780;9.606;2023-05-29T13:07:49;25.00;61.30
19930;DHT22;10127;47.780;9.606;2023-05-29T13:10:16;25.00;59.60
19930;DHT22;10127;47.780;9.606;2023-05-29T13:12:42;25.00;58.70
19930;DHT22;10127;47.780;9.606;2023-05-29T13:15:10;25.10;59.30
19930;DHT22;10127;47.780;9.606;2023-05-29T13:17:36;25.20;58.40
19930;DHT22;10127;47.780;9.606;2023-05-29T13:20:02;25.20;58.90
19930;DHT22;10127;47.780;9.606;2023-05-29T13:22:32;25.10;59.40
19930;DHT22;10127;47.780;9.606;2023-05-29T13:24:58;25.20;59.60
19930;DHT22;10127;47.780;9.606;2023-05-29T13:27:25;25.30;59.40
19930;DHT22;10127;47.780;9.606;2023-05-29T13:29:52;25.30;56.70
19930;DHT22;10127;47.780;9.606;2023-05-29T13:32:17;25.20;57.50
19930;DHT22;10127;47.780;9.606;2023-05-29T13:34:43;25.40;58.30
19930;DHT22;10127;47.780;9.606;2023-05-29T13:37:08;25.70;57.90
19930;DHT22;10127;47.780;9.606;2023-05-29T13:39:34;25.50;57.40
19930;DHT22;10127;47.780;9.606;2023-05-29T13:42:00;25.40;57.70
19930;DHT22;10127;47.780;9.606;2023-05-29T13:44:25;25.50;57.60
19930;DHT22;10127;47.780;9.606;2023-05-29T13:46:51;25.50;57.00
19930;DHT22;10127;47.780;9.606;2023-05-29T13:49:17;25.60;56.50
19930;DHT22;10127;47.780;9.606;2023-05-29T13:51:42;25.50;55.80
19930;DHT22;10127;47.780;9.606;2023-05-29T13:54:08;25.50;55.80
19930;DHT22;10127;47.780;9.606;2023-05-29T13:56:33;25.50;56.80
19930;DHT22;10127;47.780;9.606;2023-05-29T13:58:59;25.50;57.20
19930;DHT22;10127;47.780;9.606;2023-05-29T14:01:30;25.70;57.30
19930;DHT22;10127;47.780;9.606;2023-05-29T14:03:56;25.60;57.50
19930;DHT22;10127;47.780;9.606;2023-05-29T14:06:21;25.80;58.90
19930;DHT22;10127;47.780;9.606;2023-05-29T14:08:47;25.60;60.10
19930;DHT22;10127;47.780;9.606;2023-05-29T14:11:12;25.80;60.50
19930;DHT22;10127;47.780;9.606;2023-05-29T14:13:38;26.00;59.10
19930;DHT22;10127;47.780;9.606;2023-05-29T14:16:04;25.90;56.30
19930;DHT22;10127;47.780;9.606;2023-05-29T14:18:29;25.90;54.10
19930;DHT22;10127;47.780;9.606;2023-05-29T14:20:55;25.70;55.00
19930;DHT22;10127;47.780;9.606;2023-05-29T14:23:20;25.70;56.10
19930;DHT22;10127;47.780;9.606;2023-05-29T14:25:46;26.00;57.60
19930;DHT22;10127;47.780;9.606;2023-05-29T14:28:11;26.20;58.70
19930;DHT22;10127;47.780;9.606;2023-05-29T14:30:37;26.50;59.40
19930;DHT22;10127;47.780;9.606;2023-05-29T14:33:03;26.30;59.50
19930;DHT22;10127;47.780;9.606;2023-05-29T14:35:29;26.10;59.60
19930;DHT22;10127;47.780;9.606;2023-05-29T14:37:56;26.10;59.90
19930;DHT22;10127;47.780;9.606;2023-05-29T14:40:22;26.20;60.70
19930;DHT22;10127;47.780;9.606;2023-05-29T14:42:48;26.20;57.30
19930;DHT22;10127;47.780;9.606;2023-05-29T14:45:13;26.20;55.40
19930;DHT22;10127;47.780;9.606;2023-05-29T14:47:40;26.40;57.00
19930;DHT22;10127;47.780;9.606;2023-05-29T14:50:07;26.20;57.30
19930;DHT22;10127;47.780;9.606;2023-05-29T14:52:33;26.20;57.90
19930;DHT22;10127;47.780;9.606;2023-05-29T14:55:01;26.30;58.00
19930;DHT22;10127;47.780;9.606;2023-05-29T14:57:26;26.40;57.70
19930;DHT22;10127;47.780;9.606;2023-05-29T14:59:52;26.30;58.10
19930;DHT22;10127;47.780;9.606;2023-05-29T15:02:17;26.20;57.70
19930;DHT22;10127;47.780;9.606;2023-05-29T15:04:43;26.40;58.50
19930;DHT22;10127;47.780;9.606;2023-05-29T15:07:08;26.60;57.90
19930;DHT22;10127;47.780;9.606;2023-05-29T15:09:34;27.00;57.70
19930;DHT22;10127;47.780;9.606;2023-05-29T15:12:00;26.90;57.40
19930;DHT22;10127;47.780;9.606;2023-05-29T15:14:26;26.70;57.20
19930;DHT22;10127;47.780;9.606;2023-05-29T15:16:52;26.60;57.40
19930;DHT22;10127;47.780;9.606;2023-05-29T15:19:17;26.70;57.20
19930;DHT22;10127;47.780;9.606;2023-05-29T15:21:43;26.60;56.20
19930;DHT22;10127;47.780;9.606;2023-05-29T15:24:08;26.70;57.20
19930;DHT22;10127;47.780;9.606;2023-05-29T15:26:34;27.10;56.90
19930;DHT22;10127;47.780;9.606;2023-05-29T15:29:00;27.00;56.40
19930;DHT22;10127;47.780;9.606;2023-05-29T15:31:26;27.30;56.80
19930;DHT22;10127;47.780;9.606;2023-05-29T15:33:51;29.00;55.10
19930;DHT22;10127;47.780;9.606;2023-05-29T15:36:17;33.00;51.30
19930;DHT22;10127;47.780;9.606;2023-05-29T15:38:45;34.40;48.50
19930;DHT22;10127;47.780;9.606;2023-05-29T15:41:10;36.10;46.50
19930;DHT22;10127;47.780;9.606;2023-05-29T15:43:36;38.70;44.80
19930;DHT22;10127;47.780;9.606;2023-05-29T15:46:01;40.00;41.70
19930;DHT22;10127;47.780;9.606;2023-05-29T15:48:27;41.00;40.50
19930;DHT22;10127;47.780;9.606;2023-05-29T15:50:52;41.70;39.30
19930;DHT22;10127;47.780;9.606;2023-05-29T15:53:18;41.90;38.00
19930;DHT22;10127;47.780;9.606;2023-05-29T15:55:43;41.90;37.70
19930;DHT22;10127;47.780;9.606;2023-05-29T15:58:09;40.10;39.00
19930;DHT22;10127;47.780;9.606;2023-05-29T16:00:35;40.80;38.80
19930;DHT22;10127;47.780;9.606;2023-05-29T16:03:01;40.70;39.20
19930;DHT22;10127;47.780;9.606;2023-05-29T16:05:27;38.60;40.80
19930;DHT22;10127;47.780;9.606;2023-05-29T16:07:55;39.50;40.20
19930;DHT22;10127;47.780;9.606;2023-05-29T16:10:21;41.60;38.00
19930;DHT22;10127;47.780;9.606;2023-05-29T16:12:47;41.60;37.80